Time;durP1;ratioP1;P1;durP2;ratioP2;P2;SDS_P1;SDS_P2;PMS_P1;PMS_P2;Temp;Humidity;BMP_temperature;BMP_pressure;BME280_temperature;BME280_humidity;BME280_pressure;Samples;Min_cycle;Max_cycle;Signal;HPM_P1;HPM_P2
2022/01/12 16:56:29;;;;;;;19.15;7.45;;;7.50;77.90;;;;;;6139445;23;20057;-94
2022/01/12 16:58:55;;;;;;;17.58;7.82;;;7.50;78.10;;;;;;6089743;23;20020;-94
2022/01/12 17:01:21;;;;;;;17.27;7.53;;;7.50;78.00;;;;;;6091313;23;20036;-96
2022/01/12 17:03:49;;;;;;;17.77;8.85;;;7.50;78.10;;;;;;6090882;23;20014;-94
2022/01/12 17:06:18;;;;;;;17.02;8.13;;;7.90;78.20;;;;;;6090294;23;20009;-94
2022/01/12 17:08:44;;;;;;;18.60;8.88;;;8.10;78.40;;;;;;6083891;23;20014;-95
2022/01/12 17:11:11;;;;;;;16.48;8.95;;;7.50;78.10;;;;;;6085675;23;20009;-93
2022/01/12 17:13:39;;;;;;;18.42;9.13;;;7.50;78.70;;;;;;6113446;23;20504;-95
2022/01/12 17:16:31;;;;;;;20.83;8.98;;;7.50;78.10;;;;;;6090803;23;20016;-94
2022/01/12 17:19:07;;;;;;;20.90;9.38;;;7.60;78.20;;;;;;6046694;23;20013;-95
2022/01/12 17:21:33;;;;;;;21.55;8.00;;;7.90;78.20;;;;;;6115378;23;20001;-93
2022/01/12 17:24:04;;;;;;;20.23;12.07;;;8.10;78.40;;;;;;6113352;23;20029;-94
2022/01/12 17:26:39;;;;;;;16.15;8.32;;;7.60;78.00;;;;;;6113090;23;20013;-93
2022/01/12 17:29:08;;;;;;;19.67;9.38;;;7.60;77.90;;;;;;6112857;23;20022;-94
2022/01/12 17:31:35;;;;;;;19.58;9.63;;;7.60;77.90;;;;;;6090073;23;20014;-95
2022/01/12 17:34:03;;;;;;;19.70;9.35;;;8.20;78.20;;;;;;6091178;23;20037;-95
2022/01/12 17:36:39;;;;;;;16.63;8.70;;;7.90;78.10;;;;;;6090388;23;20006;-94
2022/01/12 17:39:38;;;;;;;19.77;9.35;;;7.80;77.90;;;;;;6086239;23;20020;-94
2022/01/12 17:42:13;;;;;;;40.38;20.20;;;7.60;77.80;;;;;;6091294;23;20032;-93
2022/01/12 17:44:43;;;;;;;23.40;12.13;;;7.90;77.90;;;;;;6088313;23;20018;-86
2022/01/12 17:47:12;;;;;;;23.02;10.10;;;7.90;77.80;;;;;;6088332;23;20092;-92
2022/01/12 17:52:27;;;;;;;22.33;9.00;;;8.00;77.80;;;;;;6116536;23;20028;-94
2022/01/12 17:55:05;;;;;;;22.17;9.23;;;7.60;77.50;;;;;;6100725;23;20039;-93
2022/01/12 17:57:32;;;;;;;20.55;9.63;;;7.60;77.50;;;;;;6159092;23;20040;-94
2022/01/12 17:59:59;;;;;;;23.75;9.90;;;7.80;77.60;;;;;;6164678;23;20016;-92
2022/01/12 18:02:25;;;;;;;40.15;18.00;;;7.70;77.40;;;;;;6167665;23;20019;-92
2022/01/12 18:04:51;;;;;;;21.67;11.02;;;8.00;77.60;;;;;;6168128;23;20020;-95
2022/01/12 18:07:17;;;;;;;70.38;37.92;;;7.70;77.50;;;;;;6174029;23;20005;-91
2022/01/12 18:09:43;;;;;;;26.60;13.63;;;7.70;77.50;;;;;;6175662;23;20060;-88
2022/01/12 18:12:14;;;;;;;22.60;11.10;;;7.90;77.40;;;;;;6169906;23;20005;-93
2022/01/12 18:14:50;;;;;;;33.85;13.85;;;7.70;77.20;;;;;;6165936;23;20068;-93
2022/01/12 18:17:18;;;;;;;55.15;19.75;;;7.70;77.10;;;;;;6165713;23;20079;-92
2022/01/12 18:19:49;;;;;;;45.38;15.95;;;7.70;77.30;;;;;;6167066;23;20123;-93
2022/01/12 18:22:18;;;;;;;76.75;23.73;;;7.70;77.70;;;;;;6164389;23;20021;-92
2022/01/12 18:24:44;;;;;;;81.80;24.83;;;7.70;77.10;;;;;;6164752;23;20092;-92
2022/01/12 18:27:11;;;;;;;64.78;22.77;;;8.10;78.00;;;;;;6142740;23;20032;-93
2022/01/12 18:29:38;;;;;;;48.30;20.50;;;8.30;77.40;;;;;;6163082;23;20384;-92
2022/01/12 18:32:05;;;;;;;154.27;47.90;;;8.30;77.50;;;;;;6165342;23;20024;-93
2022/01/12 18:34:31;;;;;;;36.00;17.00;;;7.70;77.10;;;;;;6165778;23;20096;-92
2022/01/12 18:37:02;;;;;;;66.38;24.77;;;7.80;77.20;;;;;;6164811;23;20028;-94
2022/01/12 18:39:31;;;;;;;31.63;14.77;;;7.80;77.30;;;;;;6165072;23;20374;-95
2022/01/12 18:41:57;;;;;;;38.90;16.20;;;7.50;77.00;;;;;;6168932;23;20009;-95
2022/01/12 18:44:23;;;;;;;39.05;17.35;;;8.10;77.20;;;;;;6164415;23;20020;-94
2022/01/12 18:46:50;;;;;;;32.50;13.93;;;8.30;77.40;;;;;;6166191;23;20272;-95
2022/01/12 18:49:15;;;;;;;27.85;14.10;;;8.40;77.40;;;;;;6140240;23;20518;-94
2022/01/12 18:51:41;;;;;;;34.60;14.88;;;7.80;77.10;;;;;;6167594;23;20005;-95
2022/01/12 18:54:07;;;;;;;31.52;13.70;;;7.80;77.10;;;;;;6166607;23;20441;-94
2022/01/12 18:56:35;;;;;;;33.88;16.20;;;7.80;77.10;;;;;;6166609;23;20262;-94
2022/01/12 18:59:03;;;;;;;27.92;13.13;;;8.20;77.30;;;;;;6168006;23;20016;-94
2022/01/12 19:01:29;;;;;;;37.17;15.73;;;7.80;77.10;;;;;;6169743;23;20009;-93
2022/01/12 19:03:55;;;;;;;22.10;10.70;;;7.80;77.10;;;;;;6170071;23;20009;-95
2022/01/12 19:06:21;;;;;;;25.77;14.30;;;7.90;77.20;;;;;;6168966;23;20012;-95
2022/01/12 19:08:47;;;;;;;29.98;16.25;;;8.00;77.20;;;;;;6168467;23;20009;-94
2022/01/12 19:11:12;;;;;;;37.75;17.58;;;8.00;77.80;;;;;;6169756;23;20314;-95
2022/01/12 19:13:42;;;;;;;41.75;20.48;;;8.20;77.30;;;;;;6164457;23;20016;-95
2022/01/12 19:16:08;;;;;;;34.50;14.35;;;7.90;77.10;;;;;;6143898;23;20197;-94
2022/01/12 19:18:34;;;;;;;31.02;14.32;;;7.80;77.10;;;;;;6156400;23;20063;-95
2022/01/12 19:21:00;;;;;;;29.88;13.45;;;8.30;77.30;;;;;;6143863;23;20022;-94
2022/01/12 19:23:26;;;;;;;28.85;14.75;;;8.30;77.30;;;;;;6144740;23;20556;-93
2022/01/12 19:25:52;;;;;;;25.70;12.15;;;7.90;77.20;;;;;;6169246;23;20070;-93
2022/01/12 19:28:18;;;;;;;25.90;11.48;;;7.80;77.10;;;;;;6168605;23;20064;-95
2022/01/12 19:30:43;;;;;;;27.08;11.98;;;7.90;77.20;;;;;;6167588;23;20350;-95
2022/01/12 19:33:09;;;;;;;22.65;10.55;;;8.30;77.30;;;;;;6168826;23;20016;-93
2022/01/12 19:35:35;;;;;;;26.58;11.43;;;7.90;77.10;;;;;;6142654;23;20373;-94
2022/01/12 19:38:02;;;;;;;21.58;10.27;;;8.30;77.30;;;;;;6147077;23;20369;-93
2022/01/12 19:40:28;;;;;;;25.65;12.55;;;8.40;77.40;;;;;;6146460;23;20144;-92
2022/01/12 19:42:57;;;;;;;25.73;12.68;;;8.10;77.20;;;;;;6171102;23;20024;-95
2022/01/12 19:45:23;;;;;;;25.92;13.00;;;7.90;77.10;;;;;;6170658;23;20017;-93
2022/01/12 19:47:49;;;;;;;27.50;13.20;;;7.90;77.10;;;;;;6167559;23;20886;-94
2022/01/12 19:50:16;;;;;;;31.33;14.13;;;8.20;77.20;;;;;;6166235;23;20013;-94
2022/01/12 19:52:54;;;;;;;25.52;11.52;;;8.40;77.30;;;;;;6164319;23;20015;-93
2022/01/12 19:55:56;;;;;;;25.35;12.30;;;7.90;77.00;;;;;;6192794;23;20096;-93
2022/01/12 19:58:22;;;;;;;21.77;11.15;;;7.90;77.00;;;;;;6168530;23;20013;-94
2022/01/12 20:01:22;;;;;;;20.85;10.82;;;8.40;77.30;;;;;;6168756;23;20028;-93
2022/01/12 20:03:50;;;;;;;23.45;10.75;;;7.90;76.90;;;;;;6155107;23;20368;-93
2022/01/12 20:06:17;;;;;;;25.98;11.20;;;7.90;76.90;;;;;;6165606;23;20084;-93
2022/01/12 20:08:54;;;;;;;21.88;10.63;;;8.20;77.10;;;;;;6165614;23;20032;-94
2022/01/12 20:11:24;;;;;;;20.08;10.57;;;7.90;77.00;;;;;;6169940;23;20056;-94
2022/01/12 20:13:52;;;;;;;24.02;11.43;;;7.90;76.90;;;;;;6168749;23;20067;-93
2022/01/12 20:16:24;;;;;;;30.88;12.27;;;8.10;77.10;;;;;;6167054;23;20017;-94
2022/01/12 20:22:01;;;;;;;23.77;11.13;;;8.20;77.20;;;;;;6168281;23;20019;-94
2022/01/12 20:24:45;;;;;;;29.48;11.80;;;7.90;77.00;;;;;;6190095;23;20244;-93
2022/01/12 20:27:16;;;;;;;30.42;13.73;;;8.30;77.20;;;;;;6167634;23;20009;-94
2022/01/12 20:29:52;;;;;;;29.67;11.60;;;7.90;76.90;;;;;;6165742;23;20496;-93
2022/01/12 20:32:21;;;;;;;25.52;11.52;;;7.90;77.00;;;;;;6168237;23;20005;-94
2022/01/12 20:34:55;;;;;;;26.38;12.98;;;8.30;77.20;;;;;;6166602;23;20024;-93
2022/01/12 20:37:22;;;;;;;23.55;10.85;;;7.90;77.00;;;;;;6167436;23;20059;-94
2022/01/12 20:39:49;;;;;;;25.95;10.50;;;7.90;77.00;;;;;;6138831;23;20095;-95
2022/01/12 20:42:16;;;;;;;27.75;11.77;;;8.10;77.10;;;;;;6167475;23;20009;-94
2022/01/12 20:44:42;;;;;;;28.48;12.95;;;8.30;77.20;;;;;;6167611;23;20490;-94
2022/01/12 20:47:09;;;;;;;29.02;12.05;;;7.90;77.00;;;;;;6167622;23;20064;-93
2022/01/12 20:49:35;;;;;;;25.38;12.40;;;7.90;77.10;;;;;;6143158;23;20448;-94
2022/01/12 20:52:02;;;;;;;26.90;12.38;;;7.90;77.20;;;;;;6167297;23;20020;-94
2022/01/12 20:54:28;;;;;;;22.60;10.98;;;7.80;77.20;;;;;;6162751;23;20464;-93
2022/01/12 20:56:57;;;;;;;24.95;13.00;;;7.80;77.30;;;;;;6114418;23;20041;-93
2022/01/12 20:59:30;;;;;;;24.42;10.50;;;8.40;77.60;;;;;;6088666;23;20879;-93
2022/01/12 21:01:56;;;;;;;23.70;10.35;;;8.20;77.60;;;;;;6114445;23;20026;-93
2022/01/12 21:04:22;;;;;;;23.67;10.65;;;7.80;77.30;;;;;;6087218;23;20013;-93
2022/01/12 21:06:48;;;;;;;22.52;11.70;;;8.40;77.90;;;;;;6090048;23;20459;-94
2022/01/12 21:09:15;;;;;;;21.25;10.48;;;7.80;77.50;;;;;;6114868;23;20022;-94
2022/01/12 21:11:46;;;;;;;23.92;9.75;;;7.80;77.40;;;;;;6093577;23;20009;-93
2022/01/12 21:14:19;;;;;;;27.25;13.18;;;7.80;77.40;;;;;;6088924;23;20468;-94
2022/01/12 21:16:49;;;;;;;22.52;10.25;;;7.90;77.50;;;;;;6089234;23;20312;-94
2022/01/12 21:19:16;;;;;;;23.60;11.10;;;7.90;77.50;;;;;;6113414;23;20010;-92
2022/01/12 21:21:42;;;;;;;44.85;15.88;;;8.20;77.70;;;;;;6110122;23;20009;-94
2022/01/12 21:24:10;;;;;;;29.00;12.63;;;8.20;77.70;;;;;;6086652;23;20484;-92
2022/01/12 21:26:36;;;;;;;40.15;15.55;;;7.90;77.50;;;;;;6114426;23;20005;-92
2022/01/12 21:29:02;;;;;;;37.58;15.23;;;7.40;77.30;;;;;;6086932;23;20021;-93
2022/01/12 21:31:29;;;;;;;38.22;16.13;;;8.20;77.70;;;;;;6110877;23;20370;-94
2022/01/12 21:33:55;;;;;;;44.83;19.85;;;8.40;77.90;;;;;;6111666;23;20017;-93
2022/01/12 21:36:23;;;;;;;48.35;22.67;;;7.90;77.70;;;;;;6089487;23;20012;-94
2022/01/12 21:38:55;;;;;;;50.20;20.95;;;7.90;77.70;;;;;;6088397;23;20009;-94
2022/01/12 21:41:22;;;;;;;29.20;13.65;;;8.20;78.10;;;;;;6090122;23;20001;-93
2022/01/12 21:43:55;;;;;;;42.17;21.40;;;7.90;77.80;;;;;;6098026;23;20016;-94
2022/01/12 21:46:23;;;;;;;28.52;12.18;;;7.90;77.70;;;;;;6089036;23;20397;-93
2022/01/12 21:48:50;;;;;;;44.30;18.55;;;7.90;77.70;;;;;;6112061;23;20049;-94
2022/01/12 21:51:17;;;;;;;33.83;16.17;;;8.50;78.10;;;;;;6111082;23;20064;-94
2022/01/12 21:53:44;;;;;;;26.67;13.52;;;8.50;78.00;;;;;;6110205;23;20410;-93
2022/01/12 21:56:10;;;;;;;25.75;12.07;;;8.00;77.80;;;;;;6128328;23;20472;-94
2022/01/12 21:58:39;;;;;;;37.22;16.40;;;8.30;78.00;;;;;;6141712;23;20005;-93
2022/01/12 22:01:06;;;;;;;39.63;18.75;;;8.00;77.80;;;;;;6167691;23;20005;-94
2022/01/12 22:03:32;;;;;;;29.55;14.02;;;8.00;77.80;;;;;;6164651;23;20080;-94
2022/01/12 22:05:58;;;;;;;34.30;15.40;;;8.00;77.90;;;;;;6164266;23;20166;-95
2022/01/12 22:08:24;;;;;;;28.35;12.50;;;8.40;78.10;;;;;;6167273;23;20463;-93
2022/01/12 22:10:50;;;;;;;40.95;17.08;;;8.50;78.20;;;;;;6141560;23;20017;-94
2022/01/12 22:13:16;;;;;;;49.03;19.95;;;8.50;78.20;;;;;;6166467;23;20121;-94
2022/01/12 22:15:42;;;;;;;32.78;15.75;;;8.00;78.00;;;;;;6142176;23;20024;-94
2022/01/12 22:18:08;;;;;;;42.55;18.23;;;8.00;78.50;;;;;;6166609;23;20013;-93
2022/01/12 22:20:34;;;;;;;34.70;14.90;;;8.00;78.00;;;;;;6167367;23;20013;-93
2022/01/12 22:23:00;;;;;;;44.00;18.67;;;8.10;78.10;;;;;;6140325;23;20096;-93
2022/01/12 22:25:25;;;;;;;55.58;24.83;;;8.00;78.00;;;;;;6165613;23;20313;-94
2022/01/12 22:27:51;;;;;;;28.98;13.13;;;8.10;78.10;;;;;;6167152;23;20009;-93
2022/01/12 22:30:17;;;;;;;30.95;14.77;;;8.10;78.10;;;;;;6164369;23;20033;-94
2022/01/12 22:32:43;;;;;;;27.70;13.93;;;8.10;78.20;;;;;;6165767;23;20020;-94
2022/01/12 22:35:09;;;;;;;26.50;12.75;;;8.10;78.20;;;;;;6167282;23;20017;-93
2022/01/12 22:37:35;;;;;;;33.08;16.17;;;8.10;78.20;;;;;;6143395;23;20088;-94
2022/01/12 22:40:03;;;;;;;29.27;12.93;;;8.10;78.20;;;;;;6172549;23;20017;-94
2022/01/12 22:42:29;;;;;;;24.17;11.63;;;8.10;78.20;;;;;;6172406;23;20009;-94
2022/01/12 22:44:54;;;;;;;38.25;16.50;;;8.60;78.50;;;;;;6171418;23;20013;-95
2022/01/12 22:47:20;;;;;;;26.38;13.15;;;8.40;78.40;;;;;;6168206;23;20005;-93
2022/01/12 22:49:46;;;;;;;31.15;14.50;;;8.10;78.30;;;;;;6145720;23;20009;-94
2022/01/12 22:52:12;;;;;;;44.30;18.50;;;8.50;78.50;;;;;;6164760;23;20001;-94
2022/01/12 22:54:38;;;;;;;46.20;19.38;;;8.30;78.40;;;;;;6163105;23;20021;-94
2022/01/12 22:57:28;;;;;;;39.22;16.85;;;8.60;78.60;;;;;;6169833;23;20005;-94
2022/01/12 22:59:55;;;;;;;38.60;16.95;;;8.10;78.30;;;;;;6169604;23;20348;-94
2022/01/12 23:02:21;;;;;;;35.20;17.50;;;8.50;78.60;;;;;;6168559;23;20013;-93
2022/01/12 23:04:47;;;;;;;35.58;14.45;;;8.20;78.40;;;;;;6170948;23;20068;-93
2022/01/12 23:07:13;;;;;;;38.75;16.08;;;8.50;78.60;;;;;;6169998;23;20016;-94
2022/01/12 23:09:43;;;;;;;37.83;15.73;;;8.10;78.40;;;;;;6140380;23;20017;-93
2022/01/12 23:12:10;;;;;;;37.47;14.65;;;8.50;78.70;;;;;;6167462;23;20103;-93
2022/01/12 23:14:37;;;;;;;33.20;16.10;;;8.10;78.50;;;;;;6168195;23;20066;-95
2022/01/12 23:17:03;;;;;;;29.48;12.02;;;8.30;78.60;;;;;;6142444;23;20072;-93
2022/01/12 23:19:30;;;;;;;36.17;14.15;;;8.10;78.60;;;;;;6170084;23;20510;-94
2022/01/12 23:22:00;;;;;;;30.25;12.07;;;8.10;78.60;;;;;;6169528;23;20005;-95
2022/01/12 23:24:26;;;;;;;47.40;20.10;;;8.00;78.60;;;;;;6162033;23;20113;-94
2022/01/12 23:26:53;;;;;;;36.63;13.05;;;8.00;79.40;;;;;;6140819;23;20202;-96
2022/01/12 23:29:21;;;;;;;44.30;17.80;;;8.10;78.90;;;;;;6164006;23;20017;-94
2022/01/12 23:31:48;;;;;;;30.85;12.25;;;7.90;79.10;;;;;;6144129;23;20044;-93
2022/01/12 23:34:24;;;;;;;37.15;14.82;;;7.90;79.30;;;;;;6169468;23;20020;-93
2022/01/12 23:58:24;;;;;;;23.60;9.93;;;7.90;79.50;;;;;;6167849;23;20088;-94
